createdAt,value
2024-04-03T00:00:25.708Z,0.00
2024-04-03T00:00:55.432Z,0.00
2024-04-03T00:01:26.558Z,0.00
2024-04-03T00:01:57.322Z,0.00
2024-04-03T00:02:28.634Z,0.00
2024-04-03T00:02:59.946Z,0.00
2024-04-03T00:03:30.796Z,0.00
2024-04-03T00:04:01.635Z,0.00
2024-04-03T00:04:32.525Z,0.00
2024-04-03T00:05:19.343Z,0.00
2024-04-03T00:05:34.420Z,0.00
2024-04-03T00:06:05.424Z,0.00
2024-04-03T00:06:51.691Z,0.00
2024-04-03T00:07:07.149Z,0.00
2024-04-03T00:07:53.453Z,0.00
2024-04-03T00:08:09.662Z,0.00
2024-04-03T00:08:54.326Z,0.00
2024-04-03T00:09:15.530Z,0.00
2024-04-03T00:09:43.289Z,0.00
2024-04-03T00:11:14.726Z,0.00
2024-04-03T00:11:46.951Z,0.00
2024-04-03T00:12:17.375Z,0.00
2024-04-03T00:12:48.645Z,0.00
2024-04-03T00:13:20.312Z,0.00
2024-04-03T00:13:50.784Z,0.00
2024-04-03T00:14:21.843Z,0.00
2024-04-03T00:14:52.380Z,0.00
2024-04-03T00:15:23.908Z,0.00
2024-04-03T00:16:05.517Z,0.00
2024-04-03T00:16:26.765Z,0.00
2024-04-03T00:16:56.795Z,0.00
2024-04-03T00:17:28.442Z,0.00
2024-04-03T00:17:58.964Z,0.00
2024-04-03T00:18:29.832Z,0.00
2024-04-03T00:19:01.196Z,0.00
2024-04-03T00:19:32.604Z,0.00
2024-04-03T00:20:03.322Z,0.00
2024-04-03T00:20:34.144Z,0.00
2024-04-03T00:21:04.654Z,0.00
2024-04-03T00:21:36.800Z,0.00
2024-04-03T00:22:06.566Z,0.00
2024-04-03T00:22:43.666Z,0.00
2024-04-03T00:23:09.077Z,0.00
2024-04-03T00:23:40.683Z,0.00
2024-04-03T00:24:11.040Z,0.00
2024-04-03T00:24:42.070Z,0.00
2024-04-03T00:25:13.474Z,0.00
2024-04-03T00:25:44.252Z,0.00
2024-04-03T00:26:15.280Z,0.00
2024-04-03T00:27:03.537Z,0.00
2024-04-03T00:27:16.571Z,0.00
2024-04-03T00:27:47.699Z,0.00
2024-04-03T00:28:18.987Z,0.00
2024-04-03T00:28:50.145Z,0.00
2024-04-03T00:29:21.057Z,0.00
2024-04-03T00:29:52.280Z,0.00
2024-04-03T00:30:26.840Z,0.00
2024-04-03T00:30:54.918Z,0.00
2024-04-03T00:31:25.348Z,0.00
2024-04-03T00:31:57.124Z,0.00
2024-04-03T00:32:27.667Z,0.00
2024-04-03T00:32:57.577Z,0.00
2024-04-03T00:33:29.470Z,0.00
2024-04-03T00:34:00.761Z,0.00
2024-04-03T00:34:30.739Z,0.00
2024-04-03T00:35:02.846Z,0.00
2024-04-03T00:35:32.539Z,0.00
2024-04-03T00:36:03.952Z,0.00
2024-04-03T00:36:34.187Z,0.00
2024-04-03T00:37:06.195Z,0.00
2024-04-03T00:37:36.800Z,0.00
2024-04-03T00:38:07.551Z,0.00
2024-04-03T00:38:39.112Z,0.00
2024-04-03T00:39:10.171Z,0.00
2024-04-03T00:39:41.419Z,0.00
2024-04-03T00:40:13.091Z,0.00
2024-04-03T00:40:43.564Z,0.00
2024-04-03T00:41:15.881Z,0.00
2024-04-03T00:42:02.446Z,0.00
2024-04-03T00:42:16.938Z,0.00
2024-04-03T00:42:46.844Z,0.00
2024-04-03T00:43:18.168Z,0.00
2024-04-03T00:43:50.035Z,0.00
2024-04-03T00:44:20.098Z,0.00
2024-04-03T00:44:51.565Z,0.00
2024-04-03T00:45:23.106Z,0.00
2024-04-03T00:45:54.038Z,0.00
2024-04-03T00:46:23.622Z,0.00
2024-04-03T00:46:55.131Z,0.00
2024-04-03T00:47:27.576Z,0.00
2024-04-03T00:47:57.148Z,0.00
2024-04-03T00:48:27.683Z,0.00
2024-04-03T00:48:58.554Z,0.00
2024-04-03T00:49:30.859Z,0.00
2024-04-03T00:50:02.966Z,0.00
2024-04-03T00:50:33.031Z,0.00
2024-04-03T00:51:12.576Z,0.00
2024-04-03T00:51:33.874Z,0.00
2024-04-03T00:52:04.712Z,0.00
2024-04-03T00:52:36.183Z,0.00
2024-04-03T00:53:06.855Z,0.00
2024-04-03T00:53:37.935Z,0.00
2024-04-03T00:54:08.546Z,0.00
2024-04-03T00:54:41.240Z,0.00
2024-04-03T00:55:12.673Z,0.00
2024-04-03T00:55:43.195Z,0.00
2024-04-03T00:56:13.512Z,0.00
2024-04-03T00:56:44.571Z,0.00
2024-04-03T00:57:14.668Z,0.00
2024-04-03T00:57:46.291Z,0.00
2024-04-03T00:58:17.148Z,0.00
2024-04-03T00:58:47.779Z,0.00
2024-04-03T00:59:22.131Z,0.00
2024-04-03T00:59:50.977Z,0.00
2024-04-03T01:00:26.228Z,0.00
2024-04-03T01:00:55.771Z,0.00
2024-04-03T01:02:19.627Z,0.00
2024-04-03T01:02:25.994Z,0.00
2024-04-03T01:02:56.360Z,0.00
2024-04-03T01:03:27.444Z,0.00
2024-04-03T01:03:57.768Z,0.00
2024-04-03T01:04:29.769Z,0.00
2024-04-03T01:05:00.200Z,0.00
2024-04-03T01:05:34.594Z,0.00
2024-04-03T01:06:02.699Z,0.00
2024-04-03T01:06:33.824Z,0.00
2024-04-03T01:07:04.847Z,0.00
2024-04-03T01:07:36.298Z,0.00
2024-04-03T01:08:06.433Z,0.00
2024-04-03T01:08:37.013Z,0.00
2024-04-03T01:09:07.931Z,0.00
2024-04-03T01:09:38.815Z,0.00
2024-04-03T01:10:12.821Z,0.00
2024-04-03T01:10:41.840Z,0.00
2024-04-03T01:11:12.560Z,0.00
2024-04-03T01:11:43.068Z,0.00
2024-04-03T01:12:14.857Z,0.00
2024-04-03T01:12:45.214Z,0.00
2024-04-03T01:13:15.719Z,0.00
2024-04-03T01:13:47.109Z,0.00
2024-04-03T01:14:18.424Z,0.00
2024-04-03T01:14:48.508Z,0.00
2024-04-03T01:15:21.017Z,0.00
2024-04-03T01:15:51.150Z,0.00
2024-04-03T01:16:23.076Z,0.00
2024-04-03T01:16:53.172Z,0.00
2024-04-03T01:17:23.958Z,0.00
2024-04-03T01:17:54.664Z,0.00
2024-04-03T01:18:26.392Z,0.00
2024-04-03T01:18:56.827Z,0.00
2024-04-03T01:19:43.208Z,0.00
2024-04-03T01:19:58.899Z,0.00
2024-04-03T01:20:30.998Z,0.00
2024-04-03T01:21:01.634Z,0.00
2024-04-03T01:21:43.079Z,0.00
2024-04-03T01:22:03.343Z,0.00
2024-04-03T01:22:34.695Z,0.00
2024-04-03T01:23:05.688Z,0.00
2024-04-03T01:23:35.829Z,0.00
2024-04-03T01:24:07.968Z,0.00
2024-04-03T01:24:38.802Z,0.00
2024-04-03T01:25:10.480Z,0.00
2024-04-03T01:25:51.457Z,0.00
2024-04-03T01:26:11.355Z,0.00
2024-04-03T01:26:57.655Z,0.00
2024-04-03T01:27:13.355Z,0.00
2024-04-03T01:27:44.725Z,0.00
2024-04-03T01:28:15.683Z,0.00
2024-04-03T01:28:45.997Z,0.00
2024-04-03T01:29:17.425Z,0.00
2024-04-03T01:29:47.706Z,0.00
2024-04-03T01:30:20.845Z,0.00
2024-04-03T01:30:49.885Z,0.00
2024-04-03T01:31:21.506Z,0.00
2024-04-03T01:32:10.167Z,0.00
2024-04-03T01:32:24.538Z,0.00
2024-04-03T01:32:54.715Z,0.00
2024-04-03T01:33:25.907Z,0.00
2024-04-03T01:33:56.675Z,0.00
2024-04-03T01:34:26.830Z,0.00
2024-04-03T01:34:58.347Z,0.00
2024-04-03T01:35:29.278Z,0.00
2024-04-03T01:35:59.787Z,0.00
2024-04-03T01:36:32.607Z,0.00
2024-04-03T01:37:02.368Z,0.00
2024-04-03T01:37:48.927Z,0.00
2024-04-03T01:38:03.679Z,0.00
2024-04-03T01:38:35.265Z,0.00
2024-04-03T01:39:05.400Z,0.00
2024-04-03T01:39:37.578Z,0.00
2024-04-03T01:40:10.613Z,0.00
2024-04-03T01:40:39.194Z,0.00
2024-04-03T01:41:10.472Z,0.00
2024-04-03T01:41:41.408Z,0.00
2024-04-03T01:42:12.928Z,0.00
2024-04-03T01:42:43.012Z,0.00
2024-04-03T01:43:14.052Z,0.00
2024-04-03T01:43:45.679Z,0.00
2024-04-03T01:44:16.018Z,0.00
2024-04-03T01:44:47.245Z,0.00
2024-04-03T01:45:18.251Z,0.00
2024-04-03T01:45:49.196Z,0.00
2024-04-03T01:46:19.683Z,0.00
2024-04-03T01:46:51.395Z,0.00
2024-04-03T01:47:22.373Z,0.00
2024-04-03T01:47:53.204Z,0.00
2024-04-03T01:48:24.352Z,0.00
2024-04-03T01:48:54.917Z,0.00
2024-04-03T01:49:25.663Z,0.00
2024-04-03T01:49:56.822Z,0.00
2024-04-03T01:50:28.730Z,0.00
2024-04-03T01:50:58.930Z,0.00
2024-04-03T01:51:29.687Z,0.00
2024-04-03T01:52:01.598Z,0.00
2024-04-03T01:52:32.030Z,0.00
2024-04-03T01:53:03.971Z,0.00
2024-04-03T01:53:34.113Z,0.00
2024-04-03T01:54:13.989Z,0.00
2024-04-03T01:54:35.838Z,0.00
2024-04-03T01:55:08.173Z,0.00
2024-04-03T01:55:37.645Z,0.00
2024-04-03T01:56:08.899Z,0.00
2024-04-03T01:56:40.479Z,0.00
2024-04-03T01:57:10.380Z,0.00
2024-04-03T01:57:42.437Z,0.00
2024-04-03T01:58:13.040Z,0.00
2024-04-03T01:58:43.732Z,0.00
2024-04-03T01:59:14.669Z,0.00
2024-04-03T01:59:45.831Z,0.00
2024-04-03T02:00:18.858Z,0.00
2024-04-03T02:01:05.582Z,0.00
2024-04-03T02:01:26.980Z,0.00
2024-04-03T02:01:49.617Z,0.00
2024-04-03T02:02:58.084Z,0.00
2024-04-03T02:03:23.002Z,0.00
2024-04-03T02:03:54.162Z,0.00
2024-04-03T02:04:24.819Z,0.00
2024-04-03T02:05:02.646Z,0.00
2024-04-03T02:05:27.490Z,0.00
2024-04-03T02:05:58.555Z,0.00
2024-04-03T02:06:29.942Z,0.00
2024-04-03T02:07:00.259Z,0.00
2024-04-03T02:07:47.202Z,0.00
2024-04-03T02:08:02.276Z,0.00
2024-04-03T02:08:33.291Z,0.00
2024-04-03T02:09:04.367Z,0.00
2024-04-03T02:09:44.663Z,0.00
2024-04-03T02:10:22.945Z,0.00
2024-04-03T02:10:38.246Z,0.00
2024-04-03T02:11:09.166Z,0.00
2024-04-03T02:11:41.041Z,0.00
2024-04-03T02:12:10.916Z,0.00
2024-04-03T02:12:41.323Z,0.00
2024-04-03T02:13:12.353Z,0.00
2024-04-03T02:13:43.696Z,0.00
2024-04-03T02:14:15.509Z,0.00
2024-04-03T02:14:45.381Z,0.00
2024-04-03T02:15:18.231Z,0.00
2024-04-03T02:15:47.365Z,0.00
2024-04-03T02:16:19.040Z,0.00
2024-04-03T02:17:06.934Z,0.00
2024-04-03T02:17:20.289Z,0.00
2024-04-03T02:17:51.247Z,0.00
2024-04-03T02:18:22.553Z,0.00
2024-04-03T02:18:53.140Z,0.00
2024-04-03T02:19:24.595Z,0.00
2024-04-03T02:19:55.124Z,0.00
2024-04-03T02:20:27.603Z,0.00
2024-04-03T02:20:56.653Z,0.00
2024-04-03T02:21:27.840Z,0.00
2024-04-03T02:21:59.136Z,0.00
2024-04-03T02:22:30.400Z,0.00
2024-04-03T02:23:03.332Z,0.00
2024-04-03T02:23:39.670Z,0.00
2024-04-03T02:24:15.885Z,0.00
2024-04-03T02:24:35.641Z,0.00
2024-04-03T02:25:06.151Z,0.00
2024-04-03T02:25:53.566Z,0.00
2024-04-03T02:26:07.433Z,0.00
2024-04-03T02:26:38.600Z,0.00
2024-04-03T02:27:09.608Z,0.00
2024-04-03T02:27:40.449Z,0.00
2024-04-03T02:28:11.444Z,0.00
2024-04-03T02:28:42.794Z,0.00
2024-04-03T02:29:13.297Z,0.00
2024-04-03T02:29:43.884Z,0.00
2024-04-03T02:30:17.526Z,0.00
2024-04-03T02:30:46.150Z,0.00
2024-04-03T02:31:32.961Z,0.00
2024-04-03T02:31:47.835Z,0.00
2024-04-03T02:32:20.018Z,0.00
2024-04-03T02:32:50.294Z,0.00
2024-04-03T02:33:22.406Z,0.00
2024-04-03T02:33:53.100Z,0.00
2024-04-03T02:34:23.755Z,0.00
2024-04-03T02:34:55.203Z,0.00
2024-04-03T02:35:26.947Z,0.00
2024-04-03T02:35:55.834Z,0.00
2024-04-03T02:36:28.289Z,0.00
2024-04-03T02:36:58.271Z,0.00
2024-04-03T02:37:29.407Z,0.00
2024-04-03T02:38:03.919Z,0.00
2024-04-03T02:38:31.555Z,0.00
2024-04-03T02:39:03.123Z,0.00
2024-04-03T02:39:33.261Z,0.00
2024-04-03T02:40:07.203Z,0.00
2024-04-03T02:40:36.903Z,0.00
2024-04-03T02:41:06.850Z,0.00
2024-04-03T02:41:37.864Z,0.00
2024-04-03T02:42:24.234Z,0.00
2024-04-03T02:42:39.639Z,0.00
2024-04-03T02:43:10.912Z,0.00
2024-04-03T02:43:42.566Z,0.00
2024-04-03T02:44:13.235Z,0.00
2024-04-03T02:44:43.871Z,0.00
2024-04-03T02:45:16.187Z,0.00
2024-04-03T02:45:45.738Z,0.00
2024-04-03T02:46:16.837Z,0.00
2024-04-03T02:46:48.142Z,0.00
2024-04-03T02:47:19.304Z,0.00
2024-04-03T02:47:49.404Z,0.00
2024-04-03T02:48:20.854Z,0.00
2024-04-03T02:48:52.255Z,0.00
2024-04-03T02:49:22.939Z,0.00
2024-04-03T02:49:54.419Z,0.00
2024-04-03T02:50:25.962Z,0.00
2024-04-03T02:50:55.102Z,0.00
2024-04-03T02:51:26.840Z,0.00
2024-04-03T02:51:57.390Z,0.00
2024-04-03T02:52:28.244Z,0.00
2024-04-03T02:52:59.553Z,0.00
2024-04-03T02:53:31.699Z,0.00
2024-04-03T02:54:02.043Z,0.00
2024-04-03T02:54:32.428Z,0.00
2024-04-03T02:55:04.924Z,0.00
2024-04-03T02:55:34.546Z,0.00
2024-04-03T02:56:06.001Z,0.00
2024-04-03T02:56:36.791Z,0.00
2024-04-03T02:57:09.131Z,0.00
2024-04-03T02:57:38.222Z,0.00
2024-04-03T02:58:11.676Z,0.00
2024-04-03T02:58:42.060Z,0.00
2024-04-03T02:59:12.380Z,0.00
2024-04-03T02:59:43.457Z,0.00
2024-04-03T03:00:16.644Z,0.00
2024-04-03T03:00:48.556Z,0.00
2024-04-03T03:01:16.683Z,0.00
2024-04-03T03:01:48.418Z,0.00
2024-04-03T03:02:18.298Z,0.00
2024-04-03T03:02:50.879Z,0.00
2024-04-03T03:03:20.831Z,0.00
2024-04-03T03:03:51.718Z,0.00
2024-04-03T03:04:24.346Z,0.00
2024-04-03T03:05:11.635Z,0.00
2024-04-03T03:05:25.779Z,0.00
2024-04-03T03:05:57.951Z,0.00
2024-04-03T03:06:26.725Z,0.00
2024-04-03T03:07:15.136Z,0.00
2024-04-03T03:07:28.667Z,0.00
2024-04-03T03:07:59.087Z,0.00
2024-04-03T03:08:29.891Z,0.00
2024-04-03T03:09:16.813Z,0.00
2024-04-03T03:09:34.113Z,0.00
2024-04-03T03:10:04.879Z,0.00
2024-04-03T03:10:33.918Z,0.00
2024-04-03T03:11:05.748Z,0.00
2024-04-03T03:11:35.998Z,0.00
2024-04-03T03:12:07.689Z,0.00
2024-04-03T03:12:37.738Z,0.00
2024-04-03T03:13:08.731Z,0.00
2024-04-03T03:13:39.700Z,0.00
2024-04-03T03:14:11.137Z,0.00
2024-04-03T03:14:44.303Z,0.00
2024-04-03T03:15:18.296Z,0.00
2024-04-03T03:15:45.456Z,0.00
2024-04-03T03:16:16.472Z,0.00
2024-04-03T03:16:47.284Z,0.00
2024-04-03T03:17:17.606Z,0.00
2024-04-03T03:17:48.898Z,0.00
2024-04-03T03:18:18.983Z,0.00
2024-04-03T03:18:49.033Z,0.00
2024-04-03T03:19:22.675Z,0.00
2024-04-03T03:19:52.382Z,0.00
2024-04-03T03:20:24.010Z,0.00
2024-04-03T03:20:54.297Z,0.00
2024-04-03T03:21:26.068Z,0.00
2024-04-03T03:21:56.448Z,0.00
2024-04-03T03:22:46.548Z,0.00
2024-04-03T03:22:57.600Z,0.00
2024-04-03T03:23:29.447Z,0.00
2024-04-03T03:24:00.259Z,0.00
2024-04-03T03:24:31.285Z,0.00
2024-04-03T03:25:19.650Z,0.00
2024-04-03T03:25:32.566Z,0.00
2024-04-03T03:26:04.875Z,0.00
2024-04-03T03:26:35.312Z,0.00
2024-04-03T03:27:06.168Z,0.00
2024-04-03T03:27:36.529Z,0.00
2024-04-03T03:28:09.721Z,0.00
2024-04-03T03:28:38.695Z,0.00
2024-04-03T03:29:09.413Z,0.00
2024-04-03T03:29:40.788Z,0.00
2024-04-03T03:30:13.694Z,0.00
2024-04-03T03:30:42.891Z,0.00
2024-04-03T03:31:13.784Z,0.00
2024-04-03T03:31:45.364Z,0.00
2024-04-03T03:32:16.793Z,0.00
2024-04-03T03:32:48.577Z,0.00
2024-04-03T03:33:18.376Z,0.00
2024-04-03T03:34:06.163Z,0.00
2024-04-03T03:34:19.491Z,0.00
2024-04-03T03:34:50.819Z,0.00
2024-04-03T03:35:22.571Z,0.00
2024-04-03T03:35:53.875Z,0.00
2024-04-03T03:36:23.825Z,0.00
2024-04-03T03:36:54.700Z,0.00
2024-04-03T03:37:25.861Z,0.00
2024-04-03T03:37:55.920Z,0.00
2024-04-03T03:38:27.385Z,0.00
2024-04-03T03:38:58.276Z,0.00
2024-04-03T03:39:29.252Z,0.00
2024-04-03T03:40:00.868Z,0.00
2024-04-03T03:40:31.196Z,0.00
2024-04-03T03:41:02.578Z,0.00
2024-04-03T03:41:33.335Z,0.00
2024-04-03T03:42:05.079Z,0.00
2024-04-03T03:42:35.485Z,0.00
2024-04-03T03:43:06.871Z,0.00
2024-04-03T03:43:37.989Z,0.00
2024-04-03T03:44:08.834Z,0.00
2024-04-03T03:44:41.780Z,0.00
2024-04-03T03:45:10.512Z,0.00
2024-04-03T03:45:41.439Z,0.00
2024-04-03T03:46:12.205Z,0.00
2024-04-03T03:46:44.069Z,0.00
2024-04-03T03:47:14.679Z,0.00
2024-04-03T03:47:45.613Z,0.00
2024-04-03T03:48:16.314Z,0.00
2024-04-03T03:48:48.002Z,0.00
2024-04-03T03:49:18.420Z,0.00
2024-04-03T03:49:50.139Z,0.00
2024-04-03T03:50:21.727Z,0.00
2024-04-03T03:50:52.862Z,0.00
2024-04-03T03:51:22.602Z,0.00
2024-04-03T03:52:10.075Z,0.00
2024-04-03T03:52:25.051Z,0.00
2024-04-03T03:52:55.381Z,0.00
2024-04-03T03:53:26.287Z,0.00
2024-04-03T03:53:57.013Z,0.00
2024-04-03T03:54:28.443Z,0.00
2024-04-03T03:54:59.700Z,0.00
2024-04-03T03:55:30.768Z,0.00
2024-04-03T03:56:01.248Z,0.00
2024-04-03T03:56:39.495Z,0.00
2024-04-03T03:57:03.679Z,0.00
2024-04-03T03:57:34.995Z,0.00
2024-04-03T03:58:05.374Z,0.00
2024-04-03T03:58:36.640Z,0.00
2024-04-03T03:59:07.049Z,0.00
2024-04-03T03:59:37.947Z,0.00
2024-04-03T04:00:13.984Z,0.00
2024-04-03T04:00:40.554Z,0.00
2024-04-03T04:01:11.629Z,0.00
2024-04-03T04:01:41.840Z,0.00
2024-04-03T04:02:13.992Z,0.00
2024-04-03T04:02:45.070Z,0.00
2024-04-03T04:03:21.588Z,0.00
2024-04-03T04:03:46.230Z,0.00
2024-04-03T04:04:17.340Z,0.00
2024-04-03T04:04:48.517Z,0.00
2024-04-03T04:05:25.886Z,0.00
2024-04-03T04:05:50.653Z,0.00
2024-04-03T04:06:21.137Z,0.00
2024-04-03T04:06:52.302Z,0.00
2024-04-03T04:07:25.087Z,0.00
2024-04-03T04:07:54.899Z,0.00
2024-04-03T04:08:25.714Z,0.00
2024-04-03T04:08:55.782Z,0.00
2024-04-03T04:09:27.126Z,0.00
2024-04-03T04:09:58.739Z,0.00
2024-04-03T04:10:29.804Z,0.00
2024-04-03T04:11:00.817Z,0.00
2024-04-03T04:11:31.058Z,0.00
2024-04-03T04:12:04.025Z,0.00
2024-04-03T04:12:59.056Z,0.00
2024-04-03T04:13:04.954Z,0.00
2024-04-03T04:13:35.302Z,0.00
2024-04-03T04:14:06.747Z,0.00
2024-04-03T04:14:37.294Z,0.00
2024-04-03T04:15:24.463Z,0.00
2024-04-03T04:15:39.361Z,0.00
2024-04-03T04:16:10.370Z,0.00
2024-04-03T04:16:41.644Z,0.00
2024-04-03T04:17:12.963Z,0.00
2024-04-03T04:17:43.375Z,0.00
2024-04-03T04:18:15.266Z,0.00
2024-04-03T04:25:02.620Z,0.00
2024-04-03T04:25:28.393Z,0.00
2024-04-03T04:26:00.000Z,0.00
2024-04-03T04:26:30.762Z,0.00
2024-04-03T04:27:02.241Z,0.00
2024-04-03T04:27:50.268Z,0.00
2024-04-03T04:28:02.903Z,0.00
2024-04-03T04:28:34.355Z,0.00
2024-04-03T04:29:06.055Z,0.00
2024-04-03T04:29:36.503Z,0.00
2024-04-03T04:30:10.219Z,0.00
2024-04-03T04:30:39.210Z,0.00
2024-04-03T04:31:11.180Z,0.00
2024-04-03T04:31:51.411Z,0.00
2024-04-03T04:32:12.111Z,0.00
2024-04-03T04:32:52.551Z,0.00
2024-04-03T04:33:13.679Z,0.00
2024-04-03T04:33:43.956Z,0.00
2024-04-03T04:34:15.299Z,0.00
2024-04-03T04:34:46.550Z,0.00
2024-04-03T04:35:18.018Z,0.00
2024-04-03T04:35:49.106Z,0.00
2024-04-03T04:36:20.512Z,0.00
2024-04-03T04:37:07.445Z,0.00
2024-04-03T04:37:21.929Z,0.00
2024-04-03T04:37:52.622Z,0.00
2024-04-03T04:38:23.187Z,0.00
2024-04-03T04:38:54.300Z,0.00
2024-04-03T04:39:25.648Z,0.00
2024-04-03T04:39:56.943Z,0.00
2024-04-03T04:40:32.050Z,0.00
2024-04-03T04:40:58.895Z,0.00
2024-04-03T04:41:30.205Z,0.00
2024-04-03T04:42:01.334Z,0.00
2024-04-03T04:42:31.462Z,0.00
2024-04-03T04:43:02.533Z,0.00
2024-04-03T04:43:34.115Z,0.00
2024-04-03T04:44:04.677Z,0.00
2024-04-03T04:44:35.523Z,0.00
2024-04-03T04:45:08.160Z,0.00
2024-04-03T04:45:37.285Z,0.00
2024-04-03T04:46:09.063Z,0.00
2024-04-03T04:46:40.192Z,0.00
2024-04-03T04:47:11.121Z,0.00
2024-04-03T04:47:41.646Z,0.00
2024-04-03T04:48:12.542Z,0.00
2024-04-03T04:48:44.068Z,0.00
2024-04-03T04:49:14.550Z,0.00
2024-04-03T04:49:45.258Z,0.00
2024-04-03T04:50:26.664Z,0.00
2024-04-03T04:50:47.492Z,0.00
2024-04-03T04:51:19.259Z,0.00
2024-04-03T04:51:50.406Z,0.00
2024-04-03T04:52:20.777Z,0.00
2024-04-03T04:52:52.213Z,0.36
2024-04-03T04:53:22.666Z,0.00
2024-04-03T04:53:54.010Z,0.36
2024-04-03T04:54:41.783Z,0.00
2024-04-03T04:54:55.555Z,0.00
2024-04-03T04:55:27.642Z,0.36
2024-04-03T04:55:57.588Z,0.85
2024-04-03T04:56:43.969Z,0.85
2024-04-03T04:57:00.131Z,0.36
2024-04-03T04:57:30.561Z,0.00
2024-04-03T04:58:01.571Z,1.22
2024-04-03T04:58:32.111Z,0.85
2024-04-03T04:59:03.531Z,0.85
2024-04-03T04:59:34.501Z,1.71
2024-04-03T05:00:08.472Z,1.71
2024-04-03T05:00:37.301Z,1.22
2024-04-03T05:01:23.630Z,1.22
2024-04-03T05:01:38.972Z,2.57
2024-04-03T05:02:10.854Z,1.71
2024-04-03T05:02:41.013Z,1.71
2024-04-03T05:03:12.114Z,2.57
2024-04-03T05:03:44.663Z,2.08
2024-04-03T05:04:13.935Z,2.08
2024-04-03T05:04:46.164Z,3.43
2024-04-03T05:05:17.845Z,3.43
2024-04-03T05:05:59.332Z,3.43
2024-04-03T05:06:17.503Z,3.43
2024-04-03T05:06:49.040Z,2.57
2024-04-03T05:07:21.042Z,2.94
2024-04-03T05:07:50.755Z,3.43
2024-04-03T05:08:21.501Z,2.94
2024-04-03T05:08:52.758Z,3.43
2024-04-03T05:09:23.840Z,3.79
2024-04-03T05:10:10.648Z,3.79
2024-04-03T05:10:26.997Z,3.79
2024-04-03T05:10:58.201Z,4.77
2024-04-03T05:11:28.709Z,5.14
2024-04-03T05:11:58.929Z,5.14
2024-04-03T05:12:30.606Z,5.63
2024-04-03T05:13:01.586Z,5.99
2024-04-03T05:13:32.938Z,6.48
2024-04-03T05:14:03.793Z,6.48
2024-04-03T05:14:33.533Z,6.85
2024-04-03T05:15:07.768Z,7.34
2024-04-03T05:15:45.075Z,7.70
2024-04-03T05:16:07.505Z,7.70
2024-04-03T05:16:39.415Z,8.56
2024-04-03T05:17:10.210Z,9.05
2024-04-03T05:17:40.093Z,9.91
2024-04-03T05:18:11.788Z,9.54
2024-04-03T05:18:41.782Z,9.91
2024-04-03T05:19:12.533Z,11.25
2024-04-03T05:19:43.253Z,12.11
2024-04-03T05:20:16.196Z,12.11
2024-04-03T05:20:45.827Z,14.31
2024-04-03T05:21:16.978Z,14.68
2024-04-03T05:21:47.803Z,16.02
2024-04-03T05:22:19.144Z,16.02
2024-04-03T05:22:49.960Z,16.88
2024-04-03T05:23:21.657Z,18.60
2024-04-03T05:24:20.335Z,18.60
2024-04-03T05:24:23.667Z,19.45
2024-04-03T05:24:53.892Z,20.31
2024-04-03T05:25:26.620Z,21.65
2024-04-03T05:26:26.942Z,22.51
2024-04-03T05:26:58.099Z,22.51
2024-04-03T05:27:30.916Z,24.71
2024-04-03T05:28:00.100Z,25.07
2024-04-03T05:28:30.999Z,25.94
2024-04-03T05:29:01.633Z,27.28
2024-04-03T05:29:32.533Z,29.48
2024-04-03T05:30:09.524Z,28.99
2024-04-03T05:30:42.764Z,30.34
2024-04-03T05:31:06.724Z,30.70
2024-04-03T05:31:36.645Z,32.05
2024-04-03T05:32:08.324Z,32.90
2024-04-03T05:32:39.099Z,34.62
2024-04-03T05:33:10.492Z,35.11
2024-04-03T05:33:41.491Z,36.33
2024-04-03T05:34:12.411Z,38.17
2024-04-03T05:34:43.630Z,37.68
2024-04-03T05:35:19.302Z,38.17
2024-04-03T05:35:45.746Z,39.39
2024-04-03T05:36:16.171Z,38.53
2024-04-03T05:36:46.964Z,39.88
2024-04-03T05:37:18.391Z,40.73
2024-04-03T05:37:49.368Z,42.45
2024-04-03T05:38:20.270Z,41.96
2024-04-03T05:38:51.345Z,41.10
2024-04-03T05:39:22.748Z,40.73
2024-04-03T05:39:52.743Z,39.02
2024-04-03T05:40:25.109Z,39.39
2024-04-03T05:41:06.078Z,38.53
2024-04-03T05:41:26.200Z,38.53
2024-04-03T05:41:57.738Z,38.17
2024-04-03T05:42:27.967Z,39.02
2024-04-03T05:42:59.612Z,39.88
2024-04-03T05:43:30.620Z,40.73
2024-04-03T05:44:01.573Z,41.10
2024-04-03T05:44:31.789Z,39.88
2024-04-03T05:45:18.587Z,39.88
2024-04-03T05:45:34.048Z,37.68
2024-04-03T05:46:04.755Z,37.68
2024-04-03T05:46:36.186Z,35.97
2024-04-03T05:47:07.033Z,37.19
2024-04-03T05:47:37.447Z,38.17
2024-04-03T05:48:09.217Z,39.88
2024-04-03T05:48:40.972Z,39.88
2024-04-03T05:49:11.633Z,40.73
2024-04-03T05:49:42.790Z,39.39
2024-04-03T05:50:14.490Z,39.88
2024-04-03T05:50:44.131Z,37.68
2024-04-03T05:51:14.816Z,36.33
2024-04-03T05:51:45.718Z,36.33
2024-04-03T05:52:16.994Z,38.53
2024-04-03T05:52:48.470Z,38.17
2024-04-03T05:53:19.103Z,38.53
2024-04-03T05:54:07.129Z,39.02
2024-04-03T05:54:22.880Z,40.73
2024-04-03T05:54:52.687Z,43.80
2024-04-03T06:01:04.383Z,45.87
2024-04-03T06:01:43.176Z,40.73
2024-04-03T06:02:33.013Z,41.10
2024-04-03T06:02:37.127Z,41.59
2024-04-03T06:03:07.678Z,40.73
2024-04-03T06:03:38.743Z,39.39
2024-04-03T06:04:09.621Z,38.53
2024-04-03T06:04:41.656Z,36.33
2024-04-03T06:05:18.824Z,35.48
2024-04-03T06:05:48.652Z,33.76
2024-04-03T06:06:13.767Z,33.39
2024-04-03T06:11:05.565Z,41.10
2024-04-03T06:11:24.031Z,39.88
2024-04-03T06:11:54.717Z,39.02
2024-04-03T06:12:31.527Z,40.73
2024-04-03T06:12:57.034Z,41.59
2024-04-03T06:13:28.998Z,41.59
2024-04-03T06:14:15.286Z,41.59
2024-04-03T06:14:29.725Z,42.45
2024-04-03T06:15:00.944Z,42.94
2024-04-03T06:15:31.760Z,41.10
2024-04-03T06:16:02.608Z,40.24
2024-04-03T06:16:33.468Z,40.24
2024-04-03T06:17:04.779Z,41.10
2024-04-03T06:17:35.493Z,39.88
2024-04-03T06:18:07.172Z,42.94
2024-04-03T06:18:37.724Z,45.51
2024-04-03T06:19:08.642Z,47.22
2024-04-03T06:19:41.164Z,50.65
2024-04-03T06:21:12.136Z,50.28
2024-04-03T06:21:45.389Z,52.48
2024-04-03T06:22:54.663Z,54.19
2024-04-03T06:23:18.552Z,61.53
2024-04-03T06:23:48.602Z,65.94
2024-04-03T06:24:27.811Z,68.87
2024-04-03T06:24:49.802Z,68.87
2024-04-03T06:25:20.933Z,68.51
2024-04-03T06:25:52.313Z,71.56
2024-04-03T06:26:22.615Z,74.99
2024-04-03T06:26:54.161Z,77.56
2024-04-03T06:27:26.716Z,77.56
2024-04-03T06:27:58.492Z,75.48
2024-04-03T06:28:44.304Z,78.05
2024-04-03T06:28:58.694Z,79.27
2024-04-03T06:29:29.750Z,83.19
2024-04-03T06:30:05.977Z,88.45
2024-04-03T06:34:08.071Z,95.79
2024-04-03T06:34:40.164Z,97.99
2024-04-03T06:38:18.623Z,103.13
2024-04-03T06:38:47.511Z,68.51
2024-04-03T06:39:32.321Z,67.65
2024-04-03T06:39:55.131Z,69.36
2024-04-03T06:40:26.385Z,69.36
2024-04-03T06:41:06.074Z,68.87
2024-04-03T06:41:22.785Z,68.87
2024-04-03T06:42:03.904Z,68.51
2024-04-03T06:42:25.267Z,68.02
2024-04-03T06:42:56.194Z,68.87
2024-04-03T06:43:27.127Z,69.36
2024-04-03T06:43:57.723Z,73.28
2024-04-03T06:44:27.585Z,75.85
2024-04-03T06:55:42.887Z,145.70
2024-04-03T06:55:53.841Z,118.42
2024-04-03T06:56:21.922Z,108.39
2024-04-03T06:56:54.139Z,95.79
2024-04-03T06:57:25.360Z,88.82
2024-04-03T06:57:55.202Z,88.82
2024-04-03T06:58:29.621Z,85.39
2024-04-03T06:58:58.632Z,87.59
2024-04-03T06:59:30.554Z,89.31
2024-04-03T07:00:08.588Z,94.07
2024-04-03T07:00:33.255Z,98.85
2024-04-03T07:01:03.321Z,99.34
2024-04-03T07:01:33.928Z,102.27
2024-04-03T07:02:02.940Z,102.27
2024-04-03T07:02:33.944Z,101.90
2024-04-03T07:03:05.490Z,98.36
2024-04-03T07:03:36.860Z,94.56
2024-04-03T07:04:08.030Z,89.31
2024-04-03T07:04:38.282Z,85.39
2024-04-03T07:05:11.405Z,80.62
2024-04-03T07:05:40.991Z,77.56
2024-04-03T07:06:11.897Z,76.34
2024-04-03T07:06:42.937Z,74.50
2024-04-03T07:07:29.979Z,74.50
2024-04-03T07:07:44.423Z,69.73
2024-04-03T07:09:26.206Z,68.87
2024-04-03T07:09:48.730Z,70.22
2024-04-03T07:10:22.752Z,71.93
2024-04-03T07:10:52.962Z,74.14
2024-04-03T07:11:22.150Z,76.70
2024-04-03T07:11:52.645Z,80.25
2024-04-03T07:12:23.090Z,83.19
2024-04-03T07:12:54.550Z,86.73
2024-04-03T07:13:25.388Z,90.65
2024-04-03T07:13:55.968Z,94.56
2024-04-03T07:14:28.178Z,96.27
2024-04-03T07:14:58.124Z,100.56
2024-04-03T07:15:30.729Z,103.61
2024-04-03T07:16:00.382Z,107.53
2024-04-03T07:16:31.676Z,110.10
2024-04-03T07:17:04.033Z,113.65
2024-04-03T07:17:32.659Z,115.36
2024-04-03T07:18:04.048Z,116.22
2024-04-03T07:18:34.831Z,117.44
2024-04-03T07:19:06.119Z,117.44
2024-04-03T07:19:36.616Z,117.44
2024-04-03T07:20:09.602Z,116.58
2024-04-03T07:20:39.415Z,113.16
2024-04-03T07:21:10.481Z,119.27
2024-04-03T07:21:41.695Z,106.68
2024-04-03T07:22:12.223Z,102.76
2024-04-03T07:23:00.817Z,98.85
2024-04-03T07:23:13.807Z,98.85
2024-04-03T07:23:46.099Z,94.93
2024-04-03T07:24:15.782Z,93.58
2024-04-03T07:24:47.068Z,91.51
2024-04-03T07:25:20.337Z,91.87
2024-04-03T07:25:50.144Z,91.02
2024-04-03T07:26:20.126Z,88.82
2024-04-03T07:26:52.009Z,86.73
2024-04-03T07:27:22.219Z,84.53